Time;durP1;ratioP1;P1;durP2;ratioP2;P2;SDS_P1;SDS_P2;PMS_P1;PMS_P2;Temp;Humidity;BMP_temperature;BMP_pressure;BME280_temperature;BME280_humidity;BME280_pressure;Samples;Min_cycle;Max_cycle;Signal;HPM_P1;HPM_P2
2023/05/30 00:01:54;;;;;;;7.43;5.22;;;18.90;99.90;;;;;;5073670;28;20028;-67
2023/05/30 00:04:21;;;;;;;9.07;5.25;;;18.80;99.90;;;;;;5091934;28;20482;-68
2023/05/30 00:06:48;;;;;;;6.75;4.50;;;18.80;99.90;;;;;;5091938;28;20027;-68
2023/05/30 00:09:14;;;;;;;9.18;4.88;;;18.80;99.90;;;;;;5091679;28;20039;-67
2023/05/30 00:11:40;;;;;;;10.70;4.88;;;18.80;99.90;;;;;;5091819;28;20111;-69
2023/05/30 00:14:08;;;;;;;7.72;5.00;;;18.80;99.90;;;;;;5092056;28;20095;-68
2023/05/30 00:16:34;;;;;;;9.98;4.65;;;18.80;99.90;;;;;;5091890;28;20030;-68
2023/05/30 00:19:01;;;;;;;6.63;4.68;;;18.90;99.90;;;;;;5092277;28;20134;-68
2023/05/30 00:21:28;;;;;;;10.10;4.72;;;18.90;99.90;;;;;;5091820;28;20048;-68
2023/05/30 00:23:54;;;;;;;9.57;4.75;;;18.90;99.90;;;;;;5091879;28;20040;-68
2023/05/30 00:26:20;;;;;;;11.45;5.05;;;18.90;99.90;;;;;;5091654;28;20103;-69
2023/05/30 00:28:46;;;;;;;7.82;4.82;;;18.90;99.90;;;;;;5091887;28;20056;-68
2023/05/30 00:31:12;;;;;;;7.72;4.60;;;18.90;99.90;;;;;;5091344;28;20336;-69
2023/05/30 00:33:38;;;;;;;8.50;4.78;;;19.00;99.90;;;;;;5091845;28;20424;-69
2023/05/30 00:36:05;;;;;;;9.70;4.88;;;19.00;99.90;;;;;;5107038;28;20052;-68
2023/05/30 00:38:31;;;;;;;11.90;4.78;;;19.00;99.90;;;;;;5091247;28;20074;-68
2023/05/30 00:40:57;;;;;;;7.25;4.63;;;19.10;99.90;;;;;;5091320;28;20051;-68
2023/05/30 00:43:23;;;;;;;7.60;4.20;;;19.10;99.90;;;;;;5091657;28;20032;-68
2023/05/30 00:45:53;;;;;;;9.57;4.50;;;19.10;99.90;;;;;;5091224;28;20024;-68
2023/05/30 00:48:20;;;;;;;8.88;4.35;;;19.10;99.90;;;;;;5091294;28;20068;-68
2023/05/30 00:50:47;;;;;;;8.23;4.40;;;19.20;99.90;;;;;;5072975;28;20031;-68
2023/05/30 00:53:13;;;;;;;8.38;5.07;;;19.20;99.90;;;;;;5072624;28;20344;-68
2023/05/30 00:55:39;;;;;;;7.90;4.32;;;19.20;99.90;;;;;;5091429;28;20038;-69
2023/05/30 00:58:06;;;;;;;7.70;4.18;;;19.10;99.90;;;;;;5091353;28;20024;-69
2023/05/30 01:00:39;;;;;;;6.38;4.45;;;19.20;99.90;;;;;;5091059;28;20024;-67
2023/05/30 01:03:07;;;;;;;6.95;4.05;;;19.20;99.90;;;;;;5091479;28;20017;-68
2023/05/30 01:05:33;;;;;;;6.97;4.80;;;19.40;99.90;;;;;;5091066;28;20060;-68
2023/05/30 01:07:59;;;;;;;7.05;4.00;;;19.50;99.90;;;;;;5090991;28;20093;-69
2023/05/30 01:10:25;;;;;;;7.57;4.57;;;19.40;99.90;;;;;;5090626;28;20060;-69
2023/05/30 01:13:00;;;;;;;12.27;4.80;;;19.30;99.90;;;;;;5090624;28;20035;-68
2023/05/30 01:16:06;;;;;;;7.35;4.65;;;19.30;99.90;;;;;;5091033;28;20028;-68
2023/05/30 01:18:40;;;;;;;7.10;4.53;;;19.30;99.90;;;;;;5028191;28;20076;-68
2023/05/30 01:21:11;;;;;;;8.80;4.38;;;19.30;99.90;;;;;;5028602;28;20328;-68
2023/05/30 01:23:43;;;;;;;7.63;4.15;;;19.20;99.90;;;;;;5028546;28;20085;-68
2023/05/30 01:26:30;;;;;;;11.15;4.30;;;19.20;99.90;;;;;;5028124;28;20165;-68
2023/05/30 01:28:58;;;;;;;7.25;4.07;;;19.20;99.90;;;;;;5028593;28;20416;-68
2023/05/30 01:31:25;;;;;;;7.63;4.43;;;19.20;99.90;;;;;;5027824;28;20054;-69
2023/05/30 01:33:52;;;;;;;7.55;4.75;;;19.20;99.90;;;;;;5028403;28;20038;-68
2023/05/30 01:36:19;;;;;;;8.73;4.50;;;19.20;99.90;;;;;;5028282;28;20525;-68
2023/05/30 01:38:45;;;;;;;6.47;4.40;;;19.10;99.90;;;;;;5027986;28;20146;-68
2023/05/30 01:41:42;;;;;;;6.15;4.10;;;19.20;99.90;;;;;;5028569;28;20030;-69
2023/05/30 01:44:20;;;;;;;8.65;4.53;;;19.20;99.90;;;;;;5026447;28;20075;-68
2023/05/30 01:47:09;;;;;;;7.20;4.13;;;19.10;99.90;;;;;;5027832;28;20124;-68
2023/05/30 01:49:44;;;;;;;7.43;4.13;;;19.10;99.90;;;;;;5028260;28;20052;-69
2023/05/30 01:52:33;;;;;;;5.25;3.60;;;19.10;99.90;;;;;;5055684;28;20498;-68
2023/05/30 01:55:04;;;;;;;8.15;4.20;;;19.10;99.90;;;;;;5094995;28;20114;-68
2023/05/30 01:57:31;;;;;;;10.57;4.10;;;19.10;99.90;;;;;;5094632;28;20361;-68
2023/05/30 02:00:01;;;;;;;8.10;4.45;;;19.20;99.90;;;;;;5076226;28;20139;-68
2023/05/30 02:02:28;;;;;;;8.32;4.25;;;19.10;99.90;;;;;;5094292;28;20078;-68
2023/05/30 02:04:54;;;;;;;6.15;3.97;;;19.10;99.90;;;;;;5094543;28;20048;-69
2023/05/30 02:07:20;;;;;;;7.95;4.38;;;19.10;99.90;;;;;;5094395;28;20140;-68
2023/05/30 02:09:46;;;;;;;6.22;4.38;;;19.10;99.90;;;;;;5094229;28;20520;-68
2023/05/30 02:12:12;;;;;;;6.72;4.40;;;19.10;99.90;;;;;;5094624;28;20487;-67
2023/05/30 02:14:38;;;;;;;8.82;4.65;;;19.10;99.90;;;;;;5094281;28;20024;-68
2023/05/30 02:17:05;;;;;;;7.43;4.85;;;19.10;99.90;;;;;;5094128;28;20121;-68
2023/05/30 02:19:31;;;;;;;9.00;4.97;;;19.10;99.90;;;;;;5093904;28;20024;-69
2023/05/30 02:21:57;;;;;;;7.50;4.78;;;19.10;99.90;;;;;;5094249;28;20096;-68
2023/05/30 02:24:23;;;;;;;6.53;4.35;;;19.10;99.90;;;;;;5109496;28;20042;-69
2023/05/30 02:26:49;;;;;;;7.57;4.38;;;19.10;99.90;;;;;;5094377;28;20028;-69
2023/05/30 02:29:15;;;;;;;10.70;4.60;;;19.00;99.90;;;;;;5094031;28;20050;-68
2023/05/30 02:31:41;;;;;;;8.02;4.55;;;19.10;99.90;;;;;;5093556;28;20169;-67
2023/05/30 02:34:07;;;;;;;10.70;5.00;;;19.10;99.90;;;;;;5094053;28;20023;-68
2023/05/30 02:36:38;;;;;;;9.07;4.60;;;19.10;99.90;;;;;;5094135;28;20020;-68
2023/05/30 02:39:07;;;;;;;13.27;4.88;;;19.00;99.90;;;;;;5093886;28;20047;-68
2023/05/30 02:41:36;;;;;;;8.45;4.20;;;19.00;99.90;;;;;;5094208;28;20138;-69
2023/05/30 02:44:03;;;;;;;9.70;5.20;;;19.00;99.90;;;;;;5093620;28;20559;-68
2023/05/30 02:46:29;;;;;;;8.30;4.70;;;18.90;99.90;;;;;;5093869;28;20052;-68
2023/05/30 02:48:55;;;;;;;6.68;5.18;;;18.90;99.90;;;;;;5093808;28;20471;-68
2023/05/30 02:51:21;;;;;;;9.95;5.50;;;18.90;99.90;;;;;;5093460;28;20536;-68
2023/05/30 02:53:47;;;;;;;11.38;5.13;;;18.90;99.90;;;;;;5093698;28;20134;-68
2023/05/30 02:56:13;;;;;;;9.80;5.72;;;18.80;99.90;;;;;;5109341;28;20067;-68
2023/05/30 02:58:40;;;;;;;10.20;5.90;;;18.80;99.90;;;;;;5094194;28;20052;-69
2023/05/30 03:01:06;;;;;;;13.10;5.90;;;18.80;99.90;;;;;;5094136;27;20031;-67
2023/05/30 03:03:34;;;;;;;10.00;6.35;;;18.70;99.90;;;;;;5093685;28;20028;-68
2023/05/30 03:06:01;;;;;;;10.77;6.35;;;18.60;99.90;;;;;;5093891;28;20072;-69
2023/05/30 03:08:30;;;;;;;9.15;6.13;;;18.50;99.90;;;;;;5093419;28;20387;-67
2023/05/30 03:10:56;;;;;;;11.70;6.20;;;18.50;99.90;;;;;;5093543;28;20036;-68
2023/05/30 03:13:22;;;;;;;11.20;6.28;;;18.40;99.90;;;;;;5109489;28;20152;-68
2023/05/30 03:15:48;;;;;;;10.70;6.32;;;18.40;99.90;;;;;;5093841;28;20052;-67
2023/05/30 03:18:14;;;;;;;10.10;6.00;;;18.30;99.90;;;;;;5093063;28;20103;-67
2023/05/30 03:20:40;;;;;;;9.63;6.13;;;18.40;99.90;;;;;;5093541;28;20043;-66
2023/05/30 03:23:07;;;;;;;8.27;5.78;;;18.40;99.90;;;;;;5093625;28;20107;-70
2023/05/30 03:25:33;;;;;;;11.43;5.88;;;18.40;99.90;;;;;;5094577;28;20332;-68
2023/05/30 03:28:05;;;;;;;10.93;5.95;;;18.50;99.90;;;;;;5094543;28;20020;-68
2023/05/30 03:30:32;;;;;;;8.13;5.75;;;18.50;99.90;;;;;;5094052;28;20086;-68
2023/05/30 03:32:59;;;;;;;9.68;5.70;;;18.50;99.90;;;;;;5094085;28;20154;-68
2023/05/30 03:35:25;;;;;;;7.75;5.30;;;18.60;99.90;;;;;;5094405;28;20540;-68
2023/05/30 03:37:51;;;;;;;10.90;5.72;;;18.60;99.90;;;;;;5094913;28;20067;-69
2023/05/30 03:40:17;;;;;;;9.15;6.13;;;18.70;99.90;;;;;;5094342;28;20518;-67
2023/05/30 03:42:44;;;;;;;10.45;5.80;;;18.70;99.90;;;;;;5094048;28;20031;-67
2023/05/30 03:45:10;;;;;;;10.30;5.82;;;18.90;99.90;;;;;;5094100;28;20027;-67
2023/05/30 03:47:36;;;;;;;8.02;5.65;;;18.90;99.90;;;;;;5093920;28;20024;-68
2023/05/30 03:50:03;;;;;;;10.70;6.28;;;18.80;99.90;;;;;;5093952;28;20099;-67
2023/05/30 03:52:29;;;;;;;10.88;5.97;;;18.80;99.90;;;;;;5094102;28;20032;-67
2023/05/30 03:54:55;;;;;;;12.40;6.05;;;18.80;99.90;;;;;;5094278;28;20021;-68
2023/05/30 03:57:21;;;;;;;10.65;6.30;;;18.80;99.90;;;;;;5093835;28;20028;-67
2023/05/30 03:59:48;;;;;;;8.13;5.57;;;18.70;99.90;;;;;;5093744;28;20030;-67
2023/05/30 04:02:14;;;;;;;12.48;6.65;;;18.70;99.90;;;;;;5093614;28;20104;-67
2023/05/30 04:04:40;;;;;;;10.55;6.55;;;18.70;99.90;;;;;;5094261;28;20020;-69
2023/05/30 04:07:07;;;;;;;11.45;6.30;;;18.70;99.90;;;;;;5094048;28;20032;-69
2023/05/30 04:09:32;;;;;;;;;;;18.60;99.90;;;;;;5093806;28;20203;-68
2023/05/30 04:11:59;;;;;;;10.20;6.18;;;18.60;99.90;;;;;;5093395;28;19916;-68
2023/05/30 04:14:25;;;;;;;15.80;7.00;;;18.50;99.90;;;;;;5092963;28;20032;-68
2023/05/30 04:16:51;;;;;;;11.18;7.18;;;18.50;99.90;;;;;;5093692;28;20098;-68
2023/05/30 04:19:17;;;;;;;8.50;6.65;;;18.40;99.90;;;;;;5109975;28;20151;-68
2023/05/30 04:21:43;;;;;;;11.05;6.80;;;18.50;99.90;;;;;;5075932;28;20019;-69
2023/05/30 04:24:09;;;;;;;10.93;6.25;;;18.50;99.90;;;;;;5094449;28;20492;-68
2023/05/30 04:26:36;;;;;;;10.25;5.75;;;18.50;99.90;;;;;;5094109;28;20241;-69
2023/05/30 04:29:02;;;;;;;15.80;7.00;;;18.50;99.90;;;;;;5094331;28;20156;-68
2023/05/30 04:31:28;;;;;;;10.27;6.55;;;18.40;99.90;;;;;;5094137;28;20098;-68
2023/05/30 04:33:55;;;;;;;11.07;6.95;;;18.40;99.90;;;;;;5076454;28;20487;-69
2023/05/30 04:36:21;;;;;;;17.75;7.18;;;18.50;99.90;;;;;;5094765;28;20567;-65
2023/05/30 04:38:49;;;;;;;11.73;6.75;;;18.60;99.90;;;;;;5094222;28;20031;-68
2023/05/30 04:41:20;;;;;;;10.45;7.07;;;18.60;99.90;;;;;;5093660;28;20050;-68
2023/05/30 04:44:00;;;;;;;12.23;6.88;;;18.70;99.90;;;;;;5093969;28;20056;-68
2023/05/30 04:46:30;;;;;;;11.00;7.03;;;18.70;99.90;;;;;;5093677;28;20027;-69
2023/05/30 04:49:00;;;;;;;11.73;6.63;;;18.60;99.90;;;;;;5093915;28;20052;-69
2023/05/30 04:51:27;;;;;;;11.40;6.90;;;18.70;99.90;;;;;;5093808;28;20542;-69
2023/05/30 04:53:53;;;;;;;9.75;6.60;;;18.70;99.90;;;;;;5094294;28;20028;-69
2023/05/30 04:56:22;;;;;;;10.48;6.75;;;18.80;99.90;;;;;;5093382;28;20028;-68
2023/05/30 04:58:51;;;;;;;12.77;7.03;;;18.90;99.90;;;;;;5093291;28;20073;-69
2023/05/30 05:01:18;;;;;;;11.70;7.10;;;19.00;99.90;;;;;;5093005;28;20034;-70
2023/05/30 05:03:45;;;;;;;10.63;6.43;;;18.90;99.90;;;;;;5093376;28;20032;-69
2023/05/30 05:06:11;;;;;;;10.32;7.03;;;19.10;99.90;;;;;;5074849;28;20422;-69
2023/05/30 05:08:38;;;;;;;11.93;6.80;;;19.20;99.90;;;;;;5092954;28;20097;-71
2023/05/30 05:11:06;;;;;;;10.82;6.70;;;19.30;99.90;;;;;;5093001;28;20024;-69
2023/05/30 05:13:33;;;;;;;10.95;6.72;;;19.40;99.90;;;;;;5074587;28;20456;-71
2023/05/30 05:16:00;;;;;;;11.13;7.38;;;19.50;99.90;;;;;;5109482;28;20030;-70
2023/05/30 05:18:27;;;;;;;12.95;7.10;;;19.40;99.90;;;;;;5093179;28;20020;-70
2023/05/30 05:20:53;;;;;;;9.52;6.43;;;19.40;99.90;;;;;;5093308;28;20027;-71
2023/05/30 05:23:22;;;;;;;9.63;6.55;;;19.60;99.90;;;;;;5093381;28;20469;-71
2023/05/30 05:25:48;;;;;;;9.98;6.35;;;19.70;99.90;;;;;;5107975;28;20388;-72
2023/05/30 05:28:15;;;;;;;8.52;5.93;;;19.90;99.90;;;;;;5093441;28;20103;-70
2023/05/30 05:30:41;;;;;;;9.38;6.15;;;20.10;99.90;;;;;;5092752;28;20384;-73
2023/05/30 05:33:08;;;;;;;9.65;6.38;;;20.30;99.90;;;;;;5092487;28;20040;-71
2023/05/30 05:35:35;;;;;;;12.38;6.53;;;20.50;99.90;;;;;;5092846;28;20024;-71
2023/05/30 05:38:01;;;;;;;12.85;6.63;;;20.70;99.90;;;;;;5093365;28;20060;-70
2023/05/30 05:40:28;;;;;;;10.55;6.28;;;21.00;99.90;;;;;;5092828;28;20021;-72
2023/05/30 05:42:54;;;;;;;14.80;6.30;;;21.10;99.90;;;;;;5092869;28;20109;-73
2023/05/30 05:45:20;;;;;;;9.10;6.40;;;21.40;99.90;;;;;;5092621;28;20027;-71
2023/05/30 05:47:46;;;;;;;16.77;6.68;;;21.80;99.90;;;;;;5091990;28;20201;-70
2023/05/30 05:50:12;;;;;;;19.00;6.93;;;22.20;99.90;;;;;;5091935;28;20020;-68
2023/05/30 05:52:40;;;;;;;17.25;6.18;;;22.50;99.90;;;;;;5091535;28;20067;-69
2023/05/30 05:55:06;;;;;;;13.73;6.60;;;22.80;99.90;;;;;;5091452;28;20101;-68
2023/05/30 05:57:32;;;;;;;10.57;6.20;;;23.00;99.90;;;;;;5091460;28;20035;-70
2023/05/30 05:59:58;;;;;;;15.70;5.80;;;23.00;99.90;;;;;;5091407;28;20020;-68
2023/05/30 06:02:24;;;;;;;12.88;6.45;;;22.70;99.90;;;;;;5091238;28;20028;-70
2023/05/30 06:04:51;;;;;;;16.00;6.60;;;22.80;99.90;;;;;;5091612;28;20016;-69
2023/05/30 06:07:17;;;;;;;12.05;5.97;;;23.30;99.90;;;;;;5091396;28;20028;-69
2023/05/30 06:09:43;;;;;;;9.85;6.05;;;23.10;99.90;;;;;;5091161;28;20511;-70
2023/05/30 06:12:09;;;;;;;16.33;5.60;;;23.10;99.90;;;;;;5091281;28;20481;-67
2023/05/30 06:14:35;;;;;;;15.02;6.13;;;23.00;99.90;;;;;;5091598;28;20012;-68
2023/05/30 06:17:01;;;;;;;16.90;5.68;;;23.20;99.90;;;;;;5090733;28;20114;-69
2023/05/30 06:19:27;;;;;;;12.98;5.95;;;23.00;99.90;;;;;;5091341;28;20380;-69
2023/05/30 06:21:53;;;;;;;9.40;5.47;;;22.60;99.90;;;;;;5107378;28;20139;-70
2023/05/30 06:24:19;;;;;;;12.60;5.80;;;22.80;99.90;;;;;;5092291;28;20078;-69
2023/05/30 06:26:45;;;;;;;14.55;5.88;;;23.00;99.90;;;;;;5091981;28;20035;-68
2023/05/30 06:29:12;;;;;;;14.20;6.40;;;22.90;99.90;;;;;;5106862;28;20020;-67
2023/05/30 06:31:38;;;;;;;14.32;5.97;;;23.40;99.90;;;;;;5091451;28;20425;-69
2023/05/30 06:34:04;;;;;;;17.10;5.78;;;23.80;99.90;;;;;;5091749;28;20024;-68
2023/05/30 06:36:31;;;;;;;14.18;6.90;;;24.00;99.90;;;;;;5091529;28;20020;-68
2023/05/30 06:38:57;;;;;;;13.55;5.90;;;24.10;99.90;;;;;;5095181;28;20024;-68
2023/05/30 06:41:23;;;;;;;9.07;5.40;;;24.10;99.90;;;;;;5095623;28;20032;-67
2023/05/30 06:43:49;;;;;;;10.85;5.50;;;24.30;99.90;;;;;;5094933;28;20449;-69
2023/05/30 06:46:16;;;;;;;11.15;6.10;;;24.40;99.90;;;;;;5095583;28;20048;-70
2023/05/30 06:48:42;;;;;;;14.32;5.35;;;24.30;99.90;;;;;;5076840;28;20394;-69
2023/05/30 06:51:08;;;;;;;13.38;5.60;;;24.30;99.90;;;;;;5076652;28;20119;-69
2023/05/30 06:53:34;;;;;;;9.27;4.93;;;24.60;99.90;;;;;;5095578;28;20031;-69
2023/05/30 06:56:00;;;;;;;11.07;5.30;;;24.60;99.90;;;;;;5095161;28;20085;-69
2023/05/30 06:58:26;;;;;;;13.60;5.25;;;24.60;99.90;;;;;;5094785;28;20032;-70
2023/05/30 07:00:52;;;;;;;11.10;5.18;;;24.70;99.90;;;;;;5094474;28;20024;-70
2023/05/30 07:03:18;;;;;;;11.40;4.90;;;24.80;99.90;;;;;;5094382;28;20024;-71
2023/05/30 07:05:44;;;;;;;11.73;5.10;;;24.70;99.90;;;;;;5075901;28;20031;-70
2023/05/30 07:08:11;;;;;;;11.10;4.97;;;24.80;99.90;;;;;;5094493;28;20051;-70
2023/05/30 07:10:37;;;;;;;15.73;5.43;;;24.70;99.90;;;;;;5094466;28;20064;-70
2023/05/30 07:13:03;;;;;;;8.70;4.90;;;24.60;99.90;;;;;;5094443;28;20070;-71
2023/05/30 07:15:31;;;;;;;9.60;5.18;;;23.50;99.90;;;;;;5094603;28;20020;-71
2023/05/30 07:17:58;;;;;;;6.38;4.80;;;23.60;99.90;;;;;;5094264;28;20353;-69
2023/05/30 07:20:24;;;;;;;6.80;4.75;;;23.70;99.90;;;;;;5094380;28;20020;-72
2023/05/30 07:22:51;;;;;;;10.98;5.30;;;24.30;99.90;;;;;;5095018;28;20016;-70
2023/05/30 07:25:17;;;;;;;;;;;25.00;99.90;;;;;;5110211;28;20039;-70
2023/05/30 07:27:43;;;;;;;8.50;4.82;;;25.20;99.90;;;;;;5094669;28;19904;-72
2023/05/30 07:30:09;;;;;;;9.23;6.15;;;25.40;99.90;;;;;;5094127;28;20032;-70
2023/05/30 07:32:35;;;;;;;15.98;5.75;;;25.70;99.90;;;;;;5075527;28;20469;-71
2023/05/30 07:35:02;;;;;;;15.18;6.45;;;26.20;99.90;;;;;;5109593;28;20024;-70
2023/05/30 07:37:28;;;;;;;11.23;7.00;;;26.40;99.90;;;;;;5075729;28;20430;-72
2023/05/30 07:39:54;;;;;;;10.15;6.13;;;26.40;99.90;;;;;;5094474;28;20336;-68
2023/05/30 07:42:21;;;;;;;16.05;6.43;;;26.70;99.90;;;;;;5094137;28;20115;-70
2023/05/30 07:44:47;;;;;;;14.88;7.10;;;27.00;99.90;;;;;;5094063;28;20052;-69
2023/05/30 07:47:13;;;;;;;12.57;6.32;;;27.20;99.90;;;;;;5094167;28;20077;-70
2023/05/30 07:49:39;;;;;;;8.15;5.43;;;27.10;99.90;;;;;;5072040;28;20081;-70
2023/05/30 07:52:06;;;;;;;7.85;5.55;;;27.50;99.90;;;;;;5091825;28;20115;-69
2023/05/30 07:54:31;;;;;;;;;;;27.50;99.90;;;;;;5092457;28;20020;-71
2023/05/30 07:56:57;;;;;;;;;;;27.60;99.90;;;;;;5073950;28;20014;-69
2023/05/30 07:59:23;;;;;;;8.77;5.13;;;28.00;99.90;;;;;;5073792;28;19908;-71
2023/05/30 08:01:49;;;;;;;9.82;5.03;;;28.20;99.90;;;;;;5091763;28;20085;-70
2023/05/30 08:04:15;;;;;;;15.38;5.18;;;27.90;99.90;;;;;;5092139;28;20031;-69
2023/05/30 08:06:41;;;;;;;14.82;5.70;;;27.90;99.90;;;;;;5092422;28;20054;-70
2023/05/30 08:09:07;;;;;;;14.73;5.47;;;27.80;99.90;;;;;;5092126;28;20080;-71
2023/05/30 08:11:34;;;;;;;10.70;5.43;;;27.60;99.90;;;;;;5092553;28;20114;-71
2023/05/30 08:14:01;;;;;;;22.13;6.07;;;27.80;99.90;;;;;;5092627;28;20024;-69
2023/05/30 08:16:28;;;;;;;14.82;5.78;;;28.20;99.90;;;;;;5092684;28;20398;-71
2023/05/30 08:18:55;;;;;;;;;;;28.20;99.90;;;;;;5094159;28;20068;-70
2023/05/30 08:21:22;;;;;;;10.80;5.65;;;28.70;99.90;;;;;;5093219;28;19904;-70
2023/05/30 08:23:47;;;;;;;;;;;28.30;99.90;;;;;;5094008;28;20039;-71
2023/05/30 08:26:14;;;;;;;19.55;5.82;;;28.20;99.90;;;;;;5093382;28;20086;-70
2023/05/30 08:28:40;;;;;;;16.70;5.15;;;28.20;99.90;;;;;;5093525;28;20024;-69
2023/05/30 08:31:06;;;;;;;;;;;28.40;99.90;;;;;;5093659;28;20024;-70
2023/05/30 08:33:34;;;;;;;7.95;4.78;;;28.00;99.90;;;;;;5092928;28;20049;-70
2023/05/30 08:36:00;;;;;;;9.50;4.80;;;28.20;99.90;;;;;;5093507;28;20359;-72
2023/05/30 08:38:26;;;;;;;7.50;4.82;;;28.80;99.90;;;;;;5093023;28;20024;-71
2023/05/30 08:40:53;;;;;;;10.98;4.45;;;28.80;99.90;;;;;;5092846;28;20338;-70
2023/05/30 08:43:19;;;;;;;9.23;5.43;;;29.30;99.90;;;;;;5093243;28;20478;-72
2023/05/30 08:45:46;;;;;;;9.27;4.88;;;28.70;99.90;;;;;;5093065;28;20019;-71
2023/05/30 08:48:17;;;;;;;7.90;4.03;;;29.00;99.90;;;;;;5092133;28;20070;-71
2023/05/30 08:50:43;;;;;;;9.43;4.40;;;28.90;99.90;;;;;;5088489;28;20023;-69
2023/05/30 08:53:12;;;;;;;7.40;4.45;;;28.70;99.90;;;;;;5091971;28;20054;-71
2023/05/30 08:55:43;;;;;;;9.00;4.88;;;28.30;99.90;;;;;;5091924;28;20020;-69
2023/05/30 08:58:20;;;;;;;10.98;4.68;;;28.40;99.90;;;;;;5078508;28;20024;-69
2023/05/30 09:00:48;;;;;;;7.22;4.38;;;28.40;99.90;;;;;;5091797;28;20385;-71
2023/05/30 09:03:15;;;;;;;10.55;4.20;;;28.50;99.90;;;;;;5091774;28;20027;-71
2023/05/30 09:05:44;;;;;;;7.78;3.95;;;28.60;99.90;;;;;;5091958;28;20074;-70
2023/05/30 09:08:13;;;;;;;8.82;4.25;;;28.20;99.90;;;;;;5091953;28;20357;-70
2023/05/30 09:10:48;;;;;;;7.38;4.10;;;27.80;99.90;;;;;;5091541;28;20050;-71
2023/05/30 09:13:15;;;;;;;23.15;4.93;;;28.00;99.90;;;;;;5091892;28;20038;-72
2023/05/30 09:15:41;;;;;;;9.27;4.53;;;27.90;99.90;;;;;;5091934;28;20024;-70
2023/05/30 09:18:08;;;;;;;6.43;4.22;;;28.50;99.90;;;;;;5092066;28;20020;-71
2023/05/30 09:20:36;;;;;;;10.10;4.20;;;28.40;99.90;;;;;;5091212;28;20050;-71
2023/05/30 09:23:02;;;;;;;7.35;4.63;;;28.20;99.90;;;;;;5091504;28;20050;-71
2023/05/30 09:25:42;;;;;;;7.18;4.43;;;28.30;99.90;;;;;;5091577;28;20042;-72
2023/05/30 09:28:08;;;;;;;8.10;4.68;;;28.20;99.90;;;;;;5091956;28;20020;-71
2023/05/30 09:30:35;;;;;;;10.82;5.00;;;27.70;99.90;;;;;;5091637;28;20036;-70
2023/05/30 09:33:03;;;;;;;8.02;4.90;;;27.40;99.90;;;;;;5091321;28;20039;-71
2023/05/30 09:35:30;;;;;;;6.72;4.57;;;27.70;99.90;;;;;;5091544;28;20453;-69
2023/05/30 09:37:56;;;;;;;;;;;28.10;99.90;;;;;;5091773;28;20020;-72
2023/05/30 09:40:23;;;;;;;7.20;4.30;;;27.70;99.90;;;;;;5091100;28;19910;-70
2023/05/30 09:42:51;;;;;;;7.53;4.30;;;27.60;99.90;;;;;;5091803;28;20032;-72
2023/05/30 09:45:24;;;;;;;18.38;6.10;;;27.60;99.90;;;;;;5091416;28;20028;-70
2023/05/30 09:47:52;;;;;;;14.45;5.55;;;27.80;99.90;;;;;;5090935;28;20032;-70
2023/05/30 09:50:20;;;;;;;10.20;5.32;;;27.50;99.90;;;;;;5091425;28;20426;-71
2023/05/30 09:52:51;;;;;;;12.15;5.47;;;27.30;99.90;;;;;;5091711;28;20043;-71
2023/05/30 09:55:18;;;;;;;9.23;4.53;;;27.20;99.90;;;;;;5091397;28;20174;-69
2023/05/30 09:57:52;;;;;;;8.48;4.40;;;27.10;99.90;;;;;;5091004;28;20020;-70
2023/05/30 10:00:28;;;;;;;8.70;4.88;;;26.80;99.90;;;;;;5090747;28;20085;-71
2023/05/30 10:02:57;;;;;;;10.02;4.15;;;26.60;99.90;;;;;;5090941;28;20047;-70
2023/05/30 10:05:25;;;;;;;10.80;5.07;;;27.00;99.90;;;;;;5091086;28;20081;-71
2023/05/30 10:07:56;;;;;;;9.60;4.22;;;27.10;99.90;;;;;;5072658;28;20077;-70
2023/05/30 10:10:23;;;;;;;7.68;5.22;;;26.70;99.90;;;;;;5090884;28;20114;-72
2023/05/30 10:12:49;;;;;;;;;;;26.50;99.90;;;;;;5075161;28;20031;-71
2023/05/30 10:15:16;;;;;;;7.95;4.43;;;26.20;99.90;;;;;;5095099;28;19904;-70
2023/05/30 10:17:55;;;;;;;10.70;4.75;;;26.00;99.90;;;;;;5094401;28;20063;-70
2023/05/30 10:20:24;;;;;;;6.00;4.28;;;26.50;99.90;;;;;;5095028;28;20043;-72
2023/05/30 10:22:55;;;;;;;9.63;5.00;;;26.00;99.90;;;;;;5094674;28;20108;-72
2023/05/30 10:25:25;;;;;;;9.13;4.90;;;25.90;99.90;;;;;;5095305;28;20024;-71
2023/05/30 10:27:57;;;;;;;8.77;4.55;;;26.10;99.90;;;;;;5095230;28;20026;-72
2023/05/30 10:30:29;;;;;;;11.75;5.10;;;26.40;99.90;;;;;;5095137;28;20032;-71
2023/05/30 10:33:09;;;;;;;12.95;5.40;;;26.60;99.90;;;;;;5094465;28;20081;-70
2023/05/30 10:35:36;;;;;;;7.80;4.57;;;26.20;99.90;;;;;;5091393;28;20042;-70
2023/05/30 10:38:07;;;;;;;8.32;4.97;;;26.10;99.90;;;;;;5083207;28;20127;-70
2023/05/30 10:40:44;;;;;;;10.05;5.25;;;25.70;99.90;;;;;;5094723;28;20044;-71
2023/05/30 10:43:44;;;;;;;11.27;5.30;;;25.80;99.90;;;;;;5094944;28;20016;-71
2023/05/30 10:46:27;;;;;;;8.20;5.18;;;26.30;99.90;;;;;;5094139;28;20049;-70
2023/05/30 10:48:58;;;;;;;8.07;4.70;;;26.10;99.90;;;;;;5094008;28;20032;-70
2023/05/30 10:51:24;;;;;;;12.02;5.00;;;26.10;99.90;;;;;;5076266;28;20028;-71
2023/05/30 10:53:51;;;;;;;8.43;4.88;;;25.90;99.90;;;;;;5094505;28;20206;-70
2023/05/30 10:56:27;;;;;;;10.35;5.07;;;26.20;99.90;;;;;;5075847;28;20078;-71
2023/05/30 10:58:53;;;;;;;9.77;5.05;;;26.10;99.90;;;;;;5093912;28;20068;-71
2023/05/30 11:01:24;;;;;;;;;;;26.30;99.90;;;;;;5094865;28;20050;-72
2023/05/30 11:04:15;;;;;;;13.43;4.95;;;26.30;99.90;;;;;;5093797;28;19911;-70
2023/05/30 11:06:44;;;;;;;10.48;5.03;;;25.90;99.90;;;;;;5094223;28;20032;-70
2023/05/30 11:09:18;;;;;;;23.40;6.45;;;26.10;99.90;;;;;;5094131;28;20044;-70
2023/05/30 11:11:45;;;;;;;13.02;4.90;;;26.20;99.90;;;;;;5094443;28;20027;-67
2023/05/30 11:14:15;;;;;;;11.57;4.88;;;26.10;99.90;;;;;;5094927;28;20044;-74
2023/05/30 11:17:08;;;;;;;8.48;5.10;;;26.00;99.90;;;;;;5077123;28;20046;-73
2023/05/30 11:19:47;;;;;;;10.93;7.88;;;25.90;99.90;;;;;;5093223;28;20047;-72
2023/05/30 11:22:15;;;;;;;13.45;6.45;;;25.90;99.90;;;;;;5095579;28;20020;-73
2023/05/30 11:24:43;;;;;;;17.52;9.70;;;26.10;99.90;;;;;;5094397;28;20055;-70
2023/05/30 11:27:16;;;;;;;10.35;7.60;;;26.40;99.90;;;;;;5094835;28;20104;-73
2023/05/30 11:29:49;;;;;;;12.02;8.70;;;26.30;99.90;;;;;;5094582;28;20094;-74
2023/05/30 11:32:23;;;;;;;13.07;7.50;;;26.20;99.90;;;;;;5094839;28;20111;-72
2023/05/30 11:35:02;;;;;;;8.05;4.93;;;26.20;99.90;;;;;;5094866;28;20454;-72
2023/05/30 11:37:31;;;;;;;13.68;5.57;;;26.30;99.90;;;;;;5095389;28;20157;-71
2023/05/30 11:39:58;;;;;;;8.02;4.32;;;26.50;99.90;;;;;;5095597;28;20016;-70
2023/05/30 11:42:29;;;;;;;34.75;6.57;;;26.70;99.90;;;;;;5095140;28;20086;-71
2023/05/30 11:44:56;;;;;;;6.00;4.30;;;26.80;99.90;;;;;;5095659;27;20031;-73
2023/05/30 11:47:22;;;;;;;;;;;26.80;99.90;;;;;;5094824;28;20024;-70
2023/05/30 11:49:49;;;;;;;7.78;4.88;;;26.40;99.90;;;;;;5093755;28;19994;-69
2023/05/30 11:52:15;;;;;;;14.35;4.60;;;26.10;99.90;;;;;;5093667;28;20040;-69
2023/05/30 11:54:41;;;;;;;8.13;4.80;;;26.20;99.90;;;;;;5093943;28;20461;-72
2023/05/30 11:57:12;;;;;;;6.55;3.95;;;26.30;99.90;;;;;;5093927;28;20028;-72
2023/05/30 11:59:42;;;;;;;10.25;5.03;;;26.60;99.90;;;;;;5093766;28;20024;-71
2023/05/30 12:02:08;;;;;;;7.60;4.60;;;26.60;99.90;;;;;;5075926;28;20054;-75
2023/05/30 12:04:37;;;;;;;10.13;5.50;;;26.60;99.90;;;;;;5093677;28;20108;-74
2023/05/30 12:07:05;;;;;;;21.73;10.23;;;26.60;99.90;;;;;;5093888;28;20359;-68
2023/05/30 12:09:41;;;;;;;18.00;9.60;;;26.30;99.90;;;;;;5093358;28;20472;-69
2023/05/30 12:12:08;;;;;;;15.57;9.00;;;26.20;99.90;;;;;;5093718;28;20178;-69
2023/05/30 12:14:39;;;;;;;10.98;5.65;;;26.10;99.90;;;;;;5093343;28;20043;-70
2023/05/30 12:17:12;;;;;;;10.63;5.30;;;26.40;99.90;;;;;;5093600;28;20020;-70
2023/05/30 12:19:39;;;;;;;8.52;5.13;;;26.20;99.90;;;;;;5093835;28;20016;-69
2023/05/30 12:22:06;;;;;;;10.98;5.10;;;26.20;99.90;;;;;;5094266;28;20035;-69
2023/05/30 12:24:36;;;;;;;8.85;5.07;;;26.30;99.90;;;;;;5093872;28;20024;-70
2023/05/30 12:27:05;;;;;;;9.25;4.53;;;26.60;99.90;;;;;;5095283;28;20364;-70
2023/05/30 12:29:33;;;;;;;6.22;4.53;;;26.60;99.90;;;;;;5094159;28;20059;-69
2023/05/30 12:32:00;;;;;;;9.82;5.00;;;26.80;99.90;;;;;;5093637;28;20541;-70
2023/05/30 12:34:39;;;;;;;6.97;4.10;;;26.60;99.90;;;;;;5093621;28;20016;-69
2023/05/30 12:37:13;;;;;;;6.47;3.67;;;26.70;99.90;;;;;;5094144;28;20012;-70
2023/05/30 12:39:59;;;;;;;9.10;4.35;;;26.70;99.90;;;;;;5093986;28;20073;-68
2023/05/30 12:42:27;;;;;;;7.38;4.10;;;26.70;99.90;;;;;;5093959;28;20028;-68
2023/05/30 12:44:55;;;;;;;8.98;3.53;;;26.60;99.90;;;;;;5093808;28;20411;-69
2023/05/30 12:47:21;;;;;;;9.10;3.92;;;26.60;99.90;;;;;;5093349;28;20448;-67
2023/05/30 12:49:47;;;;;;;8.70;3.97;;;26.50;99.90;;;;;;5093771;28;20477;-67
2023/05/30 12:52:15;;;;;;;7.82;3.97;;;26.50;99.90;;;;;;5093396;28;20036;-68